Weather observations for the past three days for
Delaware Airpark
Metric (Imperial)
Date Time (edt) Wind (kph) Vis. (km) Weather Sky Cond. Temperature (ºC) Relative Humidity Wind Chill (°C) Heat Index (°C) Pressure Precipitation (cm)
Air Dwpt 6 hour altimeter (cm) sea level (mb) 1 hr 3 hr 6 hr
Max. Min.
04 20:15 S 9 16.09 NULL NULL 20 4 35% 75.79 0.0
04 19:55 S 9 16.09 Fair CLR 20 4 35% 75.79 0.0
04 19:35 S 11 G 26 16.09 Fair CLR 21 4 33% 75.79 0.0
04 19:15 SW 13 G 28 16.09 Fair CLR 22 4 31% 75.79 0.0
04 18:55 S 15 G 30 16.09 Fair CLR 22 4 31% 75.77 0.0
04 18:35 SW 15 G 28 16.09 Fair CLR 23 4 29% 75.77 0.0
04 18:15 SW 13 G 33 16.09 Fair CLR 24 4 27% 25 75.77 0.0
04 17:55 SW 19 G 33 16.09 Fair CLR 24 4 27% 25 75.77 0.0
04 17:35 SW 19 G 37 16.09 Fair CLR 24 4 27% 25 75.79 0.0
04 17:15 S 20 G 33 16.09 Fair CLR 24 3 25% 25 75.79 0.0
04 16:55 SW 15 G 33 16.09 Fair CLR 24 3 25% 25 75.79 0.0
04 16:35 W 17 G 35 16.09 Fair CLR 23 3 27% 75.79 0.0
04 16:15 SW 22 G 35 16.09 Fair CLR 24 3 25% 25 75.82 0.0
04 15:55 SW 26 16.09 Fair CLR 24 3 25% 25 75.84 0.0
04 15:35 SW 22 16.09 Fair CLR 23 3 27% 75.84 0.0
04 15:15 Vrbl 9 G 24 16.09 Fair CLR 23 2 25% 75.87 0.0
04 14:55 S 15 G 30 16.09 Fair CLR 24 3 25% 25 75.87 0.0
04 14:35 SW 15 G 28 16.09 Fair CLR 23 2 25% 75.9 0.0
04 14:15 SW 19 16.09 Fair CLR 23 2 25% 75.92 0.0
04 13:55 Vrbl 11 G 22 16.09 Fair CLR 23 1 23% 75.92 0.0
04 13:35 W 7 G 33 16.09 Fair CLR 22 1 25% 75.95 0.0
04 13:10 SW 15 G 30 16.09 Fair CLR 22 2 27% 75.97 0.0
04 12:55 SW 24 G 35 16.09 Fair CLR 22 2 27% 75.97 0.0
04 12:35 W 20 16.09 Fair CLR 22 2 27% 76 0.0
04 12:15 SW 15 G 24 16.09 Fair CLR 21 2 29% 76.02 0.0
04 11:55 SW 17 G 26 16.09 Fair CLR 21 2 29% 76.05 0.0
04 11:35 SW 15 G 26 16.09 Fair CLR 21 4 33% 76.05 0.0
04 11:15 SW 17 16.09 Fair CLR 20 4 35% 76.07 0.0
04 10:55 SW 15 16.09 Fair CLR 19 4 37% 76.07 0.0
04 10:35 W 19 16.09 Fair CLR 19 5 40% 76.07 0.0
04 09:55 SW 19 G 31 16.09 Fair CLR 17 6 49% 76.07 0.0
04 09:35 SW 20 16.09 Fair CLR 17 6 49% 76.1 0.0
04 09:15 SW 15 G 33 16.09 Fair CLR 16 7 55% 76.12 0.0
04 08:55 SW 17 16.09 Fair CLR 15 9 68% 76.12 0.0
04 08:35 SW 15 G 31 16.09 Fair CLR 14 10 77% 76.15 0.0
04 08:15 S 17 G 26 16.09 Fair CLR 14 10 77% 76.15 0.0
04 07:55 SW 13 G 24 16.09 Fair CLR 13 10 82% 76.15 0.0
04 07:35 SW 19 16.09 Fair CLR 12 10 88% 76.15 0.0
04 07:15 SW 15 16.09 A Few Clouds FEW110 11 10 94% 76.17 0.0
04 06:55 S 11 16.09 Mostly Cloudy BKN110 11 9 88% 76.17 0.0
04 06:35 S 11 16.09 Mostly Cloudy BKN110 11 9 88% 76.17 0.0
04 06:15 S 13 16.09 NULL NULL 11 9 88% 76.17 0.0
04 05:55 SW 13 16.09 NULL NULL 11 9 88% 76.17 0.0
04 05:35 SW 13 16.09 NULL NULL 11 9 88% 76.17 0.0
04 05:15 SW 13 16.09 NULL NULL 10 8 88% 8 76.17 0.0
04 04:55 SW 15 G 28 16.09 NULL NULL 10 8 88% 8 76.17 0.0
04 04:35 SW 13 G 24 16.09 NULL NULL 9 7 87% 7 76.17 0.0
04 04:15 S 15 G 24 16.09 NULL NULL 9 6 82% 7 76.17 0.0
04 03:55 SW 15 16.09 NULL NULL 9 5 76% 7 76.17 0.0
04 03:35 SW 9 16.09 NULL NULL 9 4 71% 8 76.17 0.0
04 03:15 SW 11 16.09 NULL NULL 9 3 66% 8 76.17 0.0
04 02:55 SW 13 16.09 NULL NULL 9 3 66% 7 76.17 0.0
04 02:35 SW 13 16.09 NULL NULL 9 2 62% 7 76.17 0.0
04 02:15 SW 11 16.09 NULL NULL 9 2 62% 8 76.17 0.0
04 01:55 SW 9 16.09 NULL NULL 10 1 54% 9 76.17 0.0
04 01:35 SW 9 16.09 NULL NULL 10 1 54% 9 76.17 0.0
04 01:15 SW 9 16.09 NULL NULL 10 1 54% 9 76.17 0.0
04 00:55 SW 9 16.09 NULL NULL 9 1 58% 8 76.2 0.0
04 00:35 SW 7 16.09 NULL NULL 9 1 58% 8 76.17 0.0
04 00:15 SW 7 16.09 NULL NULL 9 0 54% 8 76.17 0.0
03 23:55 SW 7 16.09 NULL NULL 9 0 54% 8 76.17 0.0
03 23:35 SW 9 16.09 NULL NULL 9 0 54% 8 76.15 0.0
03 23:15 SW 9 16.09 NULL NULL 9 0 54% 8 76.12 0.0
03 22:35 SW 11 16.09 NULL NULL 8 0 57% 6 76.12 0.0
03 22:15 SW 11 16.09 NULL NULL 9 0 54% 8 76.12 0.0
03 21:55 SW 9 16.09 NULL NULL 9 0 54% 8 76.12 0.0
03 21:35 SW 7 16.09 NULL NULL 9 0 54% 8 76.12 0.0
03 21:15 SW 7 16.09 NULL NULL 8 1 62% 7 76.1 0.0
03 20:55 SW 7 16.09 NULL NULL 8 1 62% 7 76.1 0.0
03 20:35 S 7 16.09 NULL NULL 9 1 58% 8 76.07 0.0
03 20:15 Calm 16.09 NULL NULL 11 0 47% 76.05 0.0
03 19:55 Calm 16.09 Fair CLR 12 -1 41% 76.05 0.0
03 19:35 W 7 16.09 Fair CLR 14 -2 33% 76.05 0.0
03 19:15 W 11 G 24 16.09 Fair CLR 15 -3 29% 76.05 0.0
03 18:55 W 13 16.09 Fair CLR 15 -3 29% 76.02 0.0
03 18:35 W 13 G 24 16.09 Fair CLR 16 -3 27% 76.02 0.0
03 18:15 NW 11 G 24 16.09 Fair CLR 16 -3 27% 76.05 0.0
03 17:55 NW 22 16.09 Fair CLR 16 -3 27% 76.02 0.0
03 17:35 W 26 16.09 Fair CLR 16 -3 27% 76.02 0.0
03 17:15 W 20 G 37 16.09 Fair CLR 16 -3 27% 76.02 0.0
03 16:55 W 28 16.09 Fair CLR 16 -2 29% 76.02 0.0
03 16:35 W 15 G 37 16.09 Fair CLR 16 -3 27% 76.02 0.0
03 16:15 W 20 G 43 16.09 A Few Clouds FEW075 16 -3 27% 76.05 0.0
03 15:55 W 11 G 35 16.09 Fair CLR 15 -4 27% 76.05 0.0
03 15:35 W 26 G 50 16.09 Fair CLR 15 -4 27% 76.05 0.0
03 15:15 NW 22 G 35 16.09 Fair CLR 15 -4 27% 76.07 0.0
03 14:55 W 22 G 43 16.09 Fair CLR 15 -4 27% 76.07 0.0
03 14:35 W 26 G 41 16.09 Fair CLR 15 -4 27% 76.1 0.0
03 14:15 NW 15 G 39 16.09 Fair CLR 15 -3 29% 76.1 0.0
03 13:55 W 26 G 39 16.09 Fair CLR 14 -3 31% 76.12 0.0
03 13:35 NW 19 G 33 16.09 A Few Clouds FEW070 13 -3 33% 76.12 0.0
03 13:15 N 26 G 39 16.09 Fair CLR 13 -4 31% 76.12 0.0
03 12:55 W 17 G 39 16.09 Partly Cloudy SCT060 13 -4 31% 76.15 0.0
03 12:35 NW 17 G 31 16.09 Partly Cloudy SCT060 12 -3 35% 76.15 0.0
03 12:15 NW 26 G 39 16.09 A Few Clouds FEW055 13 -2 36% 76.15 0.0
03 11:55 NW 15 G 41 16.09 Partly Cloudy SCT055 11 -2 41% 76.15 0.0
03 11:35 NW 13 G 30 16.09 Partly Cloudy SCT055 12 -2 38% 76.15 0.0
03 11:15 W 20 G 30 16.09 A Few Clouds FEW050 12 -2 38% 76.15 0.0
03 10:55 NW 22 G 39 16.09 A Few Clouds FEW050 11 -1 44% 76.15 0.0
03 10:35 NW 19 G 39 16.09 A Few Clouds FEW049 11 -2 41% 76.15 0.0
03 10:15 NW 19 G 35 16.09 Fair CLR 11 -1 44% 76.15 0.0
03 09:55 W 19 G 33 16.09 A Few Clouds FEW045 FEW070 10 -1 47% 8 76.15 0.0
03 09:35 W 19 G 30 16.09 A Few Clouds FEW070 9 0 54% 7 76.15 0.0
03 09:15 W 15 G 24 16.09 Mostly Cloudy BKN065 BKN075 9 0 54% 7 76.15 0.0
03 08:55 W 17 G 26 16.09 Mostly Cloudy BKN060 8 0 57% 6 76.15 0.0
03 08:35 W 15 G 28 16.09 Mostly Cloudy BKN060 9 0 54% 7 76.12 0.0
03 08:15 W 15 G 28 16.09 Mostly Cloudy SCT065 BKN080 9 0 54% 7 76.12 0.0
03 07:55 NW 11 G 26 16.09 A Few Clouds FEW065 FEW080 8 1 62% 6 76.1 0.0
03 07:35 W 13 16.09 Partly Cloudy SCT055 SCT065 SCT080 7 2 71% 5 76.07 0.0
03 07:15 W 13 16.09 Mostly Cloudy BKN047 BKN055 BKN065 7 2 71% 5 76.07 0.0
03 06:55 W 9 16.09 Overcast OVC045 6 2 76% 4 76.05 0.0
03 06:35 W 11 16.09 Overcast BKN044 OVC080 6 3 81% 4 76.02 0.0
03 06:15 W 13 16.09 NULL NULL 4 2 87% 1 76 0.0
03 05:55 W 9 16.09 NULL NULL 4 2 87% 2 76 0.0
03 05:35 W 11 16.09 NULL NULL 4 2 87% 2 75.97 0.0
03 05:15 W 13 16.09 NULL NULL 6 2 76% 4 75.95 0.0
03 04:55 NW 7 16.09 NULL NULL 6 2 76% 5 75.92 0.0
03 04:35 Vrbl 7 16.09 NULL NULL 6 2 76% 5 75.92 0.0
03 04:15 W 9 16.09 NULL NULL 6 2 76% 4 75.92 0.0
03 03:55 W 13 16.09 NULL NULL 6 2 76% 4 75.92 0.0
03 03:35 W 11 16.09 NULL NULL 6 2 76% 4 75.92 0.0
03 03:15 W 13 16.09 NULL NULL 7 2 71% 5 75.9 0.0
03 02:55 W 9 16.09 NULL NULL 6 1 71% 4 75.9 0.0
03 02:35 W 6 16.09 NULL NULL 7 1 66% 75.9 0.0
03 02:15 W 9 G 19 16.09 NULL NULL 8 1 62% 7 75.9 0.0
03 01:55 NW 7 16.09 NULL NULL 8 1 62% 7 75.9 0.0
03 01:35 W 7 16.09 NULL NULL 8 0 57% 7 75.9 0.0
03 01:15 Calm 16.09 NULL NULL 9 0 54% 75.9 0.0
03 00:55 NW 11 16.09 NULL NULL 9 0 54% 8 75.9 0.0
03 00:35 NW 13 16.09 NULL NULL 10 0 50% 8 75.9 0.0
03 00:15 NW 13 G 30 16.09 NULL NULL 11 0 47% 75.92 0.0
02 23:55 NW 17 G 31 16.09 NULL NULL 11 1 50% 75.92 0.0
02 23:35 Vrbl 9 16.09 NULL NULL 11 0 47% 75.95 0.0
02 23:15 NW 11 G 22 16.09 NULL NULL 11 0 47% 75.92 0.0
02 22:55 Vrbl 11 G 20 16.09 NULL NULL 11 0 47% 75.92 0.0
02 22:35 NW 13 16.09 NULL NULL 11 0 47% 75.92 0.0
02 22:15 Vrbl 7 16.09 NULL NULL 11 0 47% 75.92 0.0
02 21:55 NW 7 16.09 NULL NULL 12 0 44% 75.92 0.0
02 21:35 NW 11 16.09 NULL NULL 12 0 44% 75.92 0.0
02 21:15 NW 11 16.09 NULL NULL 12 0 44% 75.92 0.0
02 20:55 NW 9 16.09 NULL NULL 12 -1 41% 75.9 0.0
02 20:35 Calm 16.09 NULL NULL 12 0 44% 75.87 0.0
02 20:15 NW 6 16.09 NULL NULL 12 0 44% 75.84 0.0
02 19:55 Calm 16.09 A Few Clouds FEW070 13 0 41% 75.84 0.0
02 19:35 NW 6 16.09 Fair CLR 13 -1 38% 75.84 0.0
02 19:15 NW 7 16.09 Fair CLR 13 0 41% 75.84 0.0
02 18:55 NW 9 16.09 Fair CLR 14 -1 36% 75.84 0.0
02 18:35 NW 11 16.09 Fair CLR 14 -1 36% 75.84 0.0
02 18:15 NW 19 16.09 Fair CLR 15 -1 34% 75.84 0.0
02 17:55 N 15 16.09 Fair CLR 15 -1 34% 75.82 0.0
02 17:35 N 15 16.09 Fair CLR 15 -1 34% 75.82 0.0
02 17:15 Vrbl 11 G 22 16.09 Fair CLR 15 0 36% 75.82 0.0
02 16:55 N 17 G 30 16.09 Partly Cloudy SCT065 15 -1 34% 75.79 0.0
02 16:35 Vrbl 9 G 28 16.09 Partly Cloudy SCT065 15 0 36% 75.79 0.0
02 16:15 N 17 16.09 Fair CLR 15 0 36% 75.79 0.0
02 15:55 NW 13 G 24 16.09 A Few Clouds FEW065 16 1 36% 75.82 0.0
02 15:35 NW 19 16.09 Partly Cloudy SCT060 16 1 36% 75.84 0.0
02 15:15 N 20 16.09 Partly Cloudy SCT060 16 2 39% 75.84 0.0
02 14:55 N 15 G 26 16.09 Partly Cloudy SCT060 16 1 36% 75.87 0.0
02 14:35 N 22 16.09 A Few Clouds FEW055 FEW065 15 1 39% 75.9 0.0
02 14:15 N 20 16.09 Fair CLR 16 1 36% 75.92 0.0
02 13:55 NW 15 16.09 Fair CLR 15 1 39% 75.95 0.0
02 13:35 NW 19 16.09 Fair CLR 15 2 42% 75.95 0.0
02 13:15 N 19 16.09 A Few Clouds FEW038 14 3 48% 75.97 0.0
02 12:55 N 13 G 22 16.09 A Few Clouds FEW038 13 5 59% 75.97 0.0
02 12:35 Vrbl 9 G 20 16.09 Partly Cloudy SCT034 13 5 59% 76 0.0
02 12:15 NW 15 16.09 Partly Cloudy SCT033 13 5 59% 76 0.0
02 11:55 NW 7 G 22 16.09 Fair CLR 12 5 63% 76.02 0.0
02 11:35 NW 13 16.09 Fair CLR 12 5 63% 76.02 0.0
02 11:15 NW 9 G 26 16.09 Fair CLR 12 5 63% 76 0.0
02 10:55 NW 13 G 26 16.09 Fair CLR 12 5 63% 76 0.0
02 10:35 NW 9 G 22 16.09 Fair CLR 12 5 63% 76 0.0
02 10:15 NW 15 16.09 Fair CLR 12 5 63% 76 0.0
02 09:55 Vrbl 7 G 20 16.09 Fair CLR 12 5 63% 76 0.0
02 09:35 N 13 16.09 Fair CLR 11 5 67% 76 0.0
02 09:15 Vrbl 11 G 20 16.09 Fair CLR 11 6 72% 76 0.0
02 08:55 NW 13 G 22 16.09 Fair CLR 11 5 67% 76.02 0.0
02 08:35 N 15 16.09 Fair CLR 11 6 72% 76.02 0.0
02 08:15 NW 13 G 22 16.09 Fair CLR 11 5 67% 76.02 0.0
02 07:55 NW 15 16.09 Fair CLR 11 6 72% 76.02 0.0
02 07:35 NW 9 16.09 Fair CLR 10 8 88% 9 76 0.0
02 07:15 Calm 16.09 Fair CLR 9 8 94% 76 0.0
02 06:55 NW 7 16.09 Fair CLR 8 8 100% 7 75.97 0.0
02 06:35 W 6 16.09 Fair CLR 7 7 100% 75.97 0.0
02 06:15 Calm 16.09 NULL NULL 7 7 100% 75.95 0.0
02 05:55 Calm 16.09 NULL NULL 7 7 100% 75.92 0.0
02 05:35 Calm 16.09 NULL NULL 8 7 93% 75.92 0.0
02 05:15 Calm 16.09 NULL NULL 8 7 93% 75.92 0.0
02 04:55 Calm 16.09 NULL NULL 8 7 93% 75.92 0.0
02 04:35 Calm 16.09 NULL NULL 9 7 87% 75.9 0.0
02 04:15 Calm 16.09 NULL NULL 9 7 87% 75.9 0.0
02 03:55 Calm 16.09 NULL NULL 9 7 87% 75.92 0.0
02 03:35 Calm 16.09 NULL NULL 10 7 82% 75.9 0.0
02 03:15 Calm 16.09 NULL NULL 10 7 82% 75.92 0.0
02 02:55 Calm 16.09 NULL NULL 10 6 76% 75.9 0.0
02 02:35 Calm 16.09 NULL NULL 10 6 76% 75.95 0.0
02 02:15 SW 7 16.09 NULL NULL 10 6 76% 9 75.95 0.0
02 01:55 Vrbl 7 G 20 16.09 NULL NULL 11 5 67% 75.95 0.0
02 01:35 S 13 16.09 NULL NULL 11 5 67% 75.92 0.0
02 01:15 S 13 16.09 NULL NULL 11 5 67% 75.92 0.0
02 00:55 S 15 16.09 NULL NULL 11 5 67% 75.92 0.0
02 00:35 S 11 16.09 NULL NULL 11 5 67% 75.92 0.0
02 00:15 S 13 16.09 NULL NULL 11 5 67% 75.92 0.0
01 23:55 Vrbl 9 16.09 NULL NULL 11 5 67% 75.95 0.0
01 23:35 Vrbl 9 16.09 NULL NULL 11 4 62% 75.92 0.0
01 23:15 S 11 16.09 NULL NULL 12 3 54% 75.9 0.0
01 22:55 S 7 16.09 NULL NULL 12 3 54% 75.9 0.0
01 22:35 S 7 16.09 NULL NULL 11 3 58% 75.92 0.0
01 22:15 S 6 16.09 NULL NULL 12 3 54% 75.95 0.0
01 21:55 S 7 16.09 NULL NULL 12 3 54% 75.95 0.0
01 21:35 SE 7 16.09 NULL NULL 12 5 63% 75.92 0.0
01 21:15 S 7 16.09 NULL NULL 11 6 72% 75.92 0.0
01 20:55 Calm 16.09 NULL NULL 11 9 88% 75.9 0.0
01 20:35 Calm 16.09 NULL NULL 11 9 88% 75.9 0.0
Date Time (edt) Wind (kph) Vis. (km) Weather Sky Cond. Air Dwpt Max. Min. Relative Humidity Wind Chill (°C) Heat Index (°C) altimeter (cm) sea level (mb) 1 hr 3 hr 6 hr
6 hour
Temperature (ºC) Pressure Precipitation (cm)